createdAt,value
2023-05-22T00:00:10.811Z,644.00
2023-05-22T00:01:10.816Z,656.00
2023-05-22T00:02:10.864Z,648.00
2023-05-22T00:03:10.865Z,656.00
2023-05-22T00:04:10.810Z,647.00
2023-05-22T00:05:10.853Z,645.00
2023-05-22T00:06:10.793Z,673.00
2023-05-22T00:07:10.786Z,662.00
2023-05-22T00:08:10.793Z,650.00
2023-05-22T00:09:10.775Z,641.00
2023-05-22T00:10:10.769Z,639.00
2023-05-22T00:11:10.808Z,639.00
2023-05-22T00:12:10.783Z,639.00
2023-05-22T00:13:10.820Z,643.00
2023-05-22T00:14:10.788Z,660.00
2023-05-22T00:15:10.779Z,654.00
2023-05-22T00:16:10.807Z,656.00
2023-05-22T00:17:10.862Z,660.00
2023-05-22T00:18:10.921Z,674.00
2023-05-22T00:19:10.843Z,704.00
2023-05-22T00:20:10.844Z,769.00
2023-05-22T00:21:10.835Z,774.00
2023-05-22T00:22:10.774Z,759.00
2023-05-22T00:23:11.413Z,733.00
2023-05-22T00:24:10.795Z,687.00
2023-05-22T00:25:10.777Z,689.00
2023-05-22T00:26:10.784Z,735.00
2023-05-22T00:27:10.751Z,814.00
2023-05-22T00:28:10.763Z,854.00
2023-05-22T00:29:10.775Z,850.00
2023-05-22T00:30:10.784Z,813.00
2023-05-22T00:31:10.775Z,758.00
2023-05-22T00:32:10.765Z,742.00
2023-05-22T00:33:10.805Z,724.00
2023-05-22T00:34:10.892Z,713.00
2023-05-22T00:35:10.760Z,722.00
2023-05-22T00:36:10.845Z,718.00
2023-05-22T00:37:10.764Z,718.00
2023-05-22T00:38:10.767Z,723.00
2023-05-22T00:39:10.773Z,727.00
2023-05-22T00:40:10.789Z,717.00
2023-05-22T00:41:10.766Z,729.00
2023-05-22T00:42:10.801Z,739.00
2023-05-22T00:43:10.768Z,751.00
2023-05-22T00:44:10.769Z,739.00
2023-05-22T00:45:10.780Z,751.00
2023-05-22T00:46:10.801Z,752.00
2023-05-22T00:47:10.793Z,723.00
2023-05-22T00:48:10.806Z,727.00
2023-05-22T00:49:10.811Z,726.00
2023-05-22T00:50:10.835Z,726.00
2023-05-22T00:51:10.802Z,717.00
2023-05-22T00:52:10.796Z,715.00
2023-05-22T00:53:10.823Z,716.00
2023-05-22T00:54:10.845Z,721.00
2023-05-22T00:55:10.853Z,707.00
2023-05-22T00:56:10.835Z,709.00
2023-05-22T00:57:10.852Z,702.00
2023-05-22T00:58:10.856Z,703.00
2023-05-22T00:59:10.884Z,707.00
2023-05-22T01:00:10.873Z,711.00
2023-05-22T01:01:10.892Z,713.00
2023-05-22T01:02:10.975Z,715.00
2023-05-22T01:03:10.971Z,702.00
2023-05-22T01:04:10.981Z,674.00
2023-05-22T01:05:10.923Z,680.00
2023-05-22T01:06:10.907Z,675.00
2023-05-22T01:07:10.921Z,674.00
2023-05-22T01:08:10.939Z,674.00
2023-05-22T01:09:10.941Z,676.00
2023-05-22T01:10:10.931Z,672.00
2023-05-22T01:11:10.961Z,667.00
2023-05-22T01:12:10.963Z,673.00
2023-05-22T01:13:10.978Z,683.00
2023-05-22T01:14:11.015Z,683.00
2023-05-22T01:15:10.988Z,691.00
2023-05-22T01:16:11.049Z,696.00
2023-05-22T01:17:11.047Z,705.00
2023-05-22T01:18:11.170Z,720.00
2023-05-22T01:19:11.101Z,716.00
2023-05-22T01:20:11.078Z,702.00
2023-05-22T01:21:11.100Z,706.00
2023-05-22T01:22:11.109Z,707.00
2023-05-22T01:23:11.121Z,704.00
2023-05-22T01:24:11.143Z,708.00
2023-05-22T01:25:11.157Z,715.00
2023-05-22T01:26:11.196Z,722.00
2023-05-22T01:27:11.238Z,710.00
2023-05-22T01:28:11.205Z,698.00
2023-05-22T01:29:11.237Z,708.00
2023-05-22T01:30:11.244Z,716.00
2023-05-22T01:31:11.295Z,696.00
2023-05-22T01:32:11.297Z,704.00
2023-05-22T01:33:11.386Z,707.00
2023-05-22T01:34:11.364Z,701.00
2023-05-22T01:35:11.367Z,708.00
2023-05-22T01:36:11.389Z,708.00
2023-05-22T01:37:11.429Z,708.00
2023-05-22T01:38:11.459Z,707.00
2023-05-22T01:39:11.475Z,695.00
2023-05-22T01:40:11.503Z,694.00
2023-05-22T01:41:11.512Z,698.00
2023-05-22T01:42:11.578Z,688.00
2023-05-22T01:43:11.543Z,692.00
2023-05-22T01:44:11.589Z,703.00
2023-05-22T01:45:11.677Z,696.00
2023-05-22T01:46:11.729Z,703.00
2023-05-22T01:47:11.701Z,701.00
2023-05-22T01:48:11.712Z,710.00
2023-05-22T01:49:11.754Z,709.00
2023-05-22T01:50:11.789Z,714.00
2023-05-22T01:51:11.815Z,717.00
2023-05-22T01:52:11.880Z,717.00
2023-05-22T01:53:11.866Z,721.00
2023-05-22T01:54:11.913Z,726.00
2023-05-22T01:55:11.976Z,732.00
2023-05-22T01:56:11.993Z,729.00
2023-05-22T01:57:12.034Z,733.00
2023-05-22T01:58:12.085Z,726.00
2023-05-22T01:59:12.116Z,744.00
2023-05-22T02:00:12.156Z,740.00
2023-05-22T02:01:12.232Z,751.00
2023-05-22T02:02:12.222Z,759.00
2023-05-22T02:03:12.364Z,762.00
2023-05-22T02:04:12.287Z,767.00
2023-05-22T02:05:12.291Z,770.00
2023-05-22T02:06:12.363Z,763.00
2023-05-22T02:07:12.601Z,768.00
2023-05-22T02:08:12.419Z,762.00
2023-05-22T02:09:12.464Z,763.00
2023-05-22T02:10:12.526Z,764.00
2023-05-22T02:11:12.572Z,764.00
2023-05-22T02:12:12.591Z,765.00
2023-05-22T02:13:12.615Z,778.00
2023-05-22T02:14:12.671Z,776.00
2023-05-22T02:15:12.708Z,780.00
2023-05-22T02:16:12.835Z,787.00
2023-05-22T02:17:12.780Z,788.00
2023-05-22T02:18:12.979Z,803.00
2023-05-22T02:19:12.958Z,805.00
2023-05-22T02:20:13.761Z,807.00
2023-05-22T02:21:12.874Z,813.00
2023-05-22T02:22:12.905Z,818.00
2023-05-22T02:23:12.962Z,809.00
2023-05-22T02:24:12.998Z,814.00
2023-05-22T02:25:13.033Z,816.00
2023-05-22T02:26:13.109Z,811.00
2023-05-22T02:27:13.111Z,810.00
2023-05-22T02:28:13.117Z,805.00
2023-05-22T02:29:13.180Z,822.00
2023-05-22T02:30:13.237Z,828.00
2023-05-22T02:31:13.319Z,823.00
2023-05-22T02:32:13.334Z,824.00
2023-05-22T02:33:13.376Z,836.00
2023-05-22T02:34:13.430Z,821.00
2023-05-22T02:35:13.444Z,824.00
2023-05-22T02:36:13.511Z,814.00
2023-05-22T02:37:13.553Z,800.00
2023-05-22T02:38:13.597Z,794.00
2023-05-22T02:39:13.649Z,797.00
2023-05-22T02:40:13.662Z,791.00
2023-05-22T02:41:13.731Z,788.00
2023-05-22T02:42:13.791Z,773.00
2023-05-22T02:43:13.886Z,771.00
2023-05-22T02:44:13.887Z,779.00
2023-05-22T02:45:13.919Z,786.00
2023-05-22T02:46:13.996Z,775.00
2023-05-22T02:47:14.018Z,782.00
2023-05-22T02:48:14.056Z,768.00
2023-05-22T02:49:14.102Z,767.00
2023-05-22T02:50:14.129Z,773.00
2023-05-22T02:51:14.169Z,773.00
2023-05-22T02:52:14.241Z,772.00
2023-05-22T02:53:14.254Z,777.00
2023-05-22T02:54:14.323Z,759.00
2023-05-22T02:55:14.377Z,764.00
2023-05-22T02:56:14.464Z,757.00
2023-05-22T02:57:14.477Z,747.00
2023-05-22T02:58:14.506Z,754.00
2023-05-22T02:59:14.523Z,737.00
2023-05-22T03:00:14.598Z,738.00
2023-05-22T03:01:14.695Z,737.00
2023-05-22T03:02:14.680Z,743.00
2023-05-22T03:03:14.804Z,748.00
2023-05-22T03:04:14.856Z,743.00
2023-05-22T03:05:14.790Z,749.00
2023-05-22T03:06:14.878Z,740.00
2023-05-22T03:07:14.937Z,734.00
2023-05-22T03:08:14.983Z,734.00
2023-05-22T03:09:15.013Z,741.00
2023-05-22T03:10:15.033Z,750.00
2023-05-22T03:11:15.110Z,746.00
2023-05-22T03:12:15.174Z,752.00
2023-05-22T03:13:15.204Z,763.00
2023-05-22T03:14:15.262Z,763.00
2023-05-22T03:15:15.313Z,756.00
2023-05-22T03:16:16.320Z,758.00
2023-05-22T03:17:15.447Z,759.00
2023-05-22T03:18:15.455Z,766.00
2023-05-22T03:19:15.552Z,774.00
2023-05-22T03:20:15.550Z,777.00
2023-05-22T03:21:15.608Z,787.00
2023-05-22T03:22:15.650Z,796.00
2023-05-22T03:23:15.694Z,797.00
2023-05-22T03:24:15.785Z,811.00
2023-05-22T03:25:15.784Z,813.00
2023-05-22T03:26:15.847Z,815.00
2023-05-22T03:27:15.871Z,841.00
2023-05-22T03:28:15.961Z,856.00
2023-05-22T03:29:16.004Z,858.00
2023-05-22T03:30:16.015Z,855.00
2023-05-22T03:31:16.115Z,859.00
2023-05-22T03:32:16.172Z,855.00
2023-05-22T03:33:16.233Z,857.00
2023-05-22T03:34:16.206Z,863.00
2023-05-22T03:35:16.294Z,870.00
2023-05-22T03:36:16.329Z,875.00
2023-05-22T03:37:16.371Z,878.00
2023-05-22T03:38:17.278Z,881.00
2023-05-22T03:39:16.458Z,890.00
2023-05-22T03:40:16.554Z,890.00
2023-05-22T03:41:16.595Z,887.00
2023-05-22T03:42:16.647Z,893.00
2023-05-22T03:43:16.695Z,904.00
2023-05-22T03:44:16.737Z,895.00
2023-05-22T03:45:16.770Z,895.00
2023-05-22T03:46:16.840Z,904.00
2023-05-22T03:47:16.917Z,893.00
2023-05-22T03:48:16.948Z,893.00
2023-05-22T03:49:17.006Z,894.00
2023-05-22T03:50:17.051Z,892.00
2023-05-22T03:51:19.946Z,874.00
2023-05-22T03:52:17.127Z,885.00
2023-05-22T03:53:17.076Z,882.00
2023-05-22T03:54:17.111Z,873.00
2023-05-22T03:55:17.053Z,873.00
2023-05-22T03:56:17.080Z,867.00
2023-05-22T03:57:17.076Z,870.00
2023-05-22T03:58:17.028Z,864.00
2023-05-22T03:59:17.054Z,862.00
2023-05-22T04:00:17.026Z,870.00
2023-05-22T04:01:17.112Z,863.00
2023-05-22T04:02:17.127Z,862.00
2023-05-22T04:03:17.150Z,863.00
2023-05-22T04:04:17.009Z,862.00
2023-05-22T04:05:17.008Z,871.00
2023-05-22T04:06:16.984Z,870.00
2023-05-22T04:07:16.982Z,870.00
2023-05-22T04:08:16.963Z,855.00
2023-05-22T04:09:17.002Z,863.00
2023-05-22T04:10:16.985Z,864.00
2023-05-22T04:11:16.982Z,861.00
2023-05-22T04:12:16.981Z,869.00
2023-05-22T04:13:16.940Z,876.00
2023-05-22T04:14:16.937Z,870.00
2023-05-22T04:15:16.900Z,865.00
2023-05-22T04:16:16.963Z,863.00
2023-05-22T04:17:16.925Z,859.00
2023-05-22T04:18:16.889Z,852.00
2023-05-22T04:19:17.333Z,851.00
2023-05-22T04:20:16.894Z,858.00
2023-05-22T04:21:16.861Z,864.00
2023-05-22T04:22:16.896Z,884.00
2023-05-22T04:23:16.879Z,876.00
2023-05-22T04:24:16.878Z,867.00
2023-05-22T04:25:16.860Z,866.00
2023-05-22T04:26:16.846Z,860.00
2023-05-22T04:27:16.880Z,860.00
2023-05-22T04:28:16.856Z,864.00
2023-05-22T04:29:16.890Z,875.00
2023-05-22T04:30:17.013Z,872.00
2023-05-22T04:31:17.049Z,866.00
2023-05-22T04:32:17.090Z,868.00
2023-05-22T04:33:17.145Z,867.00
2023-05-22T04:34:17.216Z,873.00
2023-05-22T04:35:17.279Z,868.00
2023-05-22T04:36:17.343Z,860.00
2023-05-22T04:37:17.416Z,879.00
2023-05-22T04:38:17.434Z,883.00
2023-05-22T04:39:17.522Z,877.00
2023-05-22T04:40:17.576Z,886.00
2023-05-22T04:41:17.638Z,875.00
2023-05-22T04:42:17.721Z,873.00
2023-05-22T04:43:17.745Z,876.00
2023-05-22T04:44:17.828Z,883.00
2023-05-22T04:45:17.861Z,889.00
2023-05-22T04:46:17.992Z,902.00
2023-05-22T04:47:18.090Z,921.00
2023-05-22T04:48:18.077Z,926.00
2023-05-22T04:49:18.116Z,928.00
2023-05-22T04:50:18.187Z,945.00
2023-05-22T04:51:18.216Z,957.00
2023-05-22T04:52:18.282Z,970.00
2023-05-22T04:53:18.317Z,989.00
2023-05-22T04:54:18.367Z,1006.00
2023-05-22T04:55:18.433Z,1035.00
2023-05-22T04:56:31.893Z,1061.00
2023-05-22T04:57:19.449Z,1063.00
2023-05-22T04:58:18.437Z,1068.00
2023-05-22T04:59:18.411Z,1086.00
2023-05-22T05:00:18.420Z,1121.00
2023-05-22T05:01:18.476Z,1170.00
2023-05-22T05:02:18.438Z,1179.00
2023-05-22T05:03:18.466Z,1186.00
2023-05-22T05:04:18.413Z,1207.00
2023-05-22T05:05:18.384Z,1223.00
2023-05-22T05:06:18.382Z,1234.00
2023-05-22T05:07:18.370Z,1254.00
2023-05-22T05:08:18.431Z,1273.00
2023-05-22T05:09:18.450Z,1292.00
2023-05-22T05:10:18.476Z,1303.00
2023-05-22T05:11:18.506Z,1317.00
2023-05-22T05:12:18.592Z,1337.00
2023-05-22T05:13:18.625Z,1350.00
2023-05-22T05:14:18.627Z,1363.00
2023-05-22T05:15:18.671Z,1369.00
2023-05-22T05:16:18.740Z,1384.00
2023-05-22T05:17:18.719Z,1397.00
2023-05-22T05:18:18.777Z,1401.00
2023-05-22T05:19:18.844Z,1410.00
2023-05-22T05:20:18.829Z,1423.00
2023-05-22T05:21:18.856Z,1423.00
2023-05-22T05:22:18.917Z,1434.00
2023-05-22T05:23:18.937Z,1441.00
2023-05-22T05:24:18.953Z,1456.00
2023-05-22T05:25:18.986Z,1462.00
2023-05-22T05:26:19.000Z,1467.00
2023-05-22T05:27:19.060Z,1471.00
2023-05-22T05:28:19.068Z,1477.00
2023-05-22T05:29:19.130Z,1478.00
2023-05-22T05:30:20.513Z,1496.00
2023-05-22T05:31:19.189Z,1497.00
2023-05-22T05:32:19.273Z,1511.00
2023-05-22T05:33:19.258Z,1514.00
2023-05-22T05:34:19.269Z,1520.00
2023-05-22T05:35:19.317Z,1528.00
2023-05-22T05:36:19.360Z,1520.00
2023-05-22T05:37:19.365Z,1526.00
2023-05-22T05:38:19.382Z,1531.00
2023-05-22T05:39:19.425Z,1543.00
2023-05-22T05:40:19.431Z,1568.00
2023-05-22T05:41:19.467Z,1577.00
2023-05-22T05:42:19.497Z,1588.00
2023-05-22T05:43:19.525Z,1608.00
2023-05-22T05:44:19.527Z,1635.00
2023-05-22T05:45:19.569Z,1656.00
2023-05-22T05:46:19.595Z,1677.00
2023-05-22T05:47:19.651Z,1697.00
2023-05-22T05:48:19.662Z,1737.00
2023-05-22T05:49:19.659Z,1751.00
2023-05-22T05:50:19.708Z,1771.00
2023-05-22T05:51:19.712Z,1783.00
2023-05-22T05:52:19.776Z,1799.00
2023-05-22T05:53:19.774Z,1814.00
2023-05-22T05:54:19.897Z,1824.00
2023-05-22T05:55:19.761Z,1836.00
2023-05-22T05:56:19.811Z,1868.00
2023-05-22T05:57:19.808Z,1886.00
2023-05-22T05:58:19.837Z,1894.00
2023-05-22T05:59:19.816Z,1913.00
2023-05-22T06:00:19.827Z,1929.00
2023-05-22T06:01:19.833Z,1950.00
2023-05-22T06:02:19.925Z,1966.00
2023-05-22T06:03:19.870Z,1970.00
2023-05-22T06:04:19.841Z,1991.00
2023-05-22T06:05:19.840Z,1997.00
2023-05-22T06:06:19.812Z,1994.00
2023-05-22T06:07:19.808Z,1991.00
2023-05-22T06:08:19.937Z,2009.00
2023-05-22T06:09:19.877Z,2022.00
2023-05-22T06:10:19.867Z,2029.00
2023-05-22T06:11:19.850Z,2028.00
2023-05-22T06:12:19.887Z,2029.00
2023-05-22T06:13:19.852Z,2028.00
2023-05-22T06:14:19.899Z,2011.00
2023-05-22T06:15:19.894Z,2004.00
2023-05-22T06:16:19.915Z,2002.00
2023-05-22T06:17:19.884Z,2009.00
2023-05-22T06:18:19.916Z,2010.00
2023-05-22T06:19:19.946Z,2017.00
2023-05-22T06:20:19.947Z,2009.00
2023-05-22T06:21:19.924Z,2007.00
2023-05-22T06:22:19.990Z,2001.00
2023-05-22T06:23:19.959Z,1999.00
2023-05-22T06:24:19.987Z,2010.00
2023-05-22T06:25:20.014Z,2001.00
2023-05-22T06:26:19.986Z,2004.00
2023-05-22T06:27:20.136Z,2000.00
2023-05-22T06:28:20.034Z,1996.00
2023-05-22T06:29:20.053Z,2002.00
2023-05-22T06:30:31.963Z,2002.00
2023-05-22T06:31:21.064Z,2003.00
2023-05-22T06:32:20.100Z,2004.00
2023-05-22T06:33:20.087Z,2006.00
2023-05-22T06:34:20.050Z,2011.00
2023-05-22T06:35:20.208Z,2003.00
2023-05-22T06:36:20.044Z,2009.00
2023-05-22T06:37:20.002Z,2000.00
2023-05-22T06:38:19.990Z,1997.00
2023-05-22T06:39:19.986Z,1990.00
2023-05-22T06:40:19.977Z,1998.00
2023-05-22T06:41:19.975Z,1993.00
2023-05-22T06:42:19.957Z,2001.00
2023-05-22T06:43:19.997Z,2025.00
2023-05-22T06:44:19.933Z,2012.00
2023-05-22T06:45:20.126Z,2018.00
2023-05-22T06:46:19.973Z,2038.00
2023-05-22T06:47:19.926Z,2044.00
2023-05-22T06:48:19.937Z,2052.00
2023-05-22T06:49:19.953Z,2059.00
2023-05-22T06:50:19.938Z,2072.00
2023-05-22T06:51:19.927Z,2093.00
2023-05-22T06:52:19.889Z,2101.00
2023-05-22T06:53:19.886Z,2122.00
2023-05-22T06:54:19.905Z,2127.00
2023-05-22T06:55:19.867Z,2146.00
2023-05-22T06:56:19.883Z,2150.00
2023-05-22T06:57:19.887Z,2149.00
2023-05-22T06:58:19.861Z,2140.00
2023-05-22T06:59:20.083Z,2147.00
2023-05-22T07:00:21.778Z,2150.00
2023-05-22T07:01:19.924Z,2168.00
2023-05-22T07:02:19.927Z,2171.00
2023-05-22T07:03:20.024Z,2181.00
2023-05-22T07:04:20.075Z,2179.00
2023-05-22T07:05:20.164Z,2189.00
2023-05-22T07:06:20.306Z,2181.00
2023-05-22T07:07:20.228Z,2173.00
2023-05-22T07:08:20.312Z,2168.00
2023-05-22T07:09:20.353Z,2178.00
2023-05-22T07:10:20.404Z,2164.00
2023-05-22T07:11:20.458Z,2177.00
2023-05-22T07:12:20.502Z,2174.00
2023-05-22T07:13:20.550Z,2188.00
2023-05-22T07:14:20.561Z,2197.00
2023-05-22T07:15:20.622Z,2196.00
2023-05-22T07:16:20.699Z,2184.00
2023-05-22T07:17:20.692Z,2178.00
2023-05-22T07:18:20.674Z,2188.00
2023-05-22T07:19:20.772Z,2215.00
2023-05-22T07:20:20.758Z,2267.00
2023-05-22T07:21:20.778Z,2231.00
2023-05-22T07:22:20.833Z,2223.00
2023-05-22T07:23:20.846Z,2210.00
2023-05-22T07:24:20.891Z,2217.00
2023-05-22T07:25:20.900Z,2211.00
2023-05-22T07:26:20.937Z,2210.00
2023-05-22T07:27:20.991Z,2214.00
2023-05-22T07:28:21.032Z,2219.00
2023-05-22T07:29:23.069Z,2217.00
2023-05-22T07:30:21.035Z,2205.00
2023-05-22T07:31:21.241Z,2207.00
2023-05-22T07:32:21.104Z,2193.00
2023-05-22T07:33:21.122Z,2210.00
2023-05-22T07:34:21.176Z,2218.00
2023-05-22T07:35:21.234Z,2210.00
2023-05-22T07:36:21.215Z,2189.00
2023-05-22T07:37:21.204Z,2203.00
2023-05-22T07:38:21.245Z,2204.00
2023-05-22T07:39:21.259Z,2195.00
2023-05-22T07:40:21.268Z,2211.00
2023-05-22T07:41:21.307Z,2212.00
2023-05-22T07:42:21.330Z,2194.00
2023-05-22T07:43:21.387Z,2191.00
2023-05-22T07:44:21.388Z,2214.00
2023-05-22T07:45:21.398Z,2224.00
2023-05-22T07:46:21.493Z,2200.00
2023-05-22T07:47:21.559Z,2208.00
2023-05-22T07:48:21.562Z,2215.00
2023-05-22T07:49:21.570Z,2203.00
2023-05-22T07:50:21.606Z,2210.00
2023-05-22T07:51:21.677Z,2208.00
2023-05-22T07:52:21.722Z,2207.00
2023-05-22T07:53:21.742Z,2187.00
2023-05-22T07:54:21.826Z,2193.00
2023-05-22T07:55:21.813Z,2184.00
2023-05-22T07:56:21.873Z,2192.00
2023-05-22T07:57:21.912Z,2156.00
2023-05-22T07:58:21.944Z,2156.00
2023-05-22T07:59:22.029Z,2147.00
2023-05-22T08:00:22.145Z,2117.00
2023-05-22T08:01:22.104Z,2108.00
2023-05-22T08:02:22.202Z,2099.00
2023-05-22T08:03:24.038Z,2108.00
2023-05-22T08:04:22.297Z,2116.00
2023-05-22T08:05:22.326Z,2113.00
2023-05-22T08:06:22.321Z,2128.00
2023-05-22T08:07:22.417Z,2135.00
2023-05-22T08:08:22.441Z,2112.00
2023-05-22T08:09:22.462Z,2121.00
2023-05-22T08:10:22.533Z,2105.00
2023-05-22T08:11:22.572Z,2093.00
2023-05-22T08:12:22.592Z,2088.00
2023-05-22T08:13:22.651Z,2071.00
2023-05-22T08:14:22.687Z,2058.00
2023-05-22T08:15:22.734Z,2069.00
2023-05-22T08:16:22.824Z,2076.00
2023-05-22T08:17:22.901Z,2051.00
2023-05-22T08:18:22.921Z,2036.00
2023-05-22T08:19:23.339Z,2023.00
2023-05-22T08:20:22.996Z,2024.00
2023-05-22T08:21:23.052Z,2004.00
2023-05-22T08:22:23.088Z,1999.00
2023-05-22T08:23:23.131Z,2016.00
2023-05-22T08:24:23.215Z,2009.00
2023-05-22T08:25:23.258Z,2002.00
2023-05-22T08:26:23.296Z,2008.00
2023-05-22T08:27:23.376Z,2022.00
2023-05-22T08:28:23.412Z,2010.00
2023-05-22T08:29:23.466Z,2002.00
2023-05-22T08:30:23.518Z,1979.00
2023-05-22T08:31:23.615Z,1984.00
2023-05-22T08:32:23.655Z,1972.00
2023-05-22T08:33:23.675Z,1963.00
2023-05-22T08:34:23.723Z,1945.00
2023-05-22T08:35:23.826Z,1929.00
2023-05-22T08:36:23.826Z,1928.00
2023-05-22T08:37:23.884Z,1928.00
2023-05-22T08:38:23.973Z,1904.00
2023-05-22T08:39:23.994Z,1928.00
2023-05-22T08:40:24.084Z,1973.00
2023-05-22T08:41:24.103Z,1975.00
2023-05-22T08:42:24.188Z,1977.00
2023-05-22T08:43:24.224Z,1992.00
2023-05-22T08:44:24.235Z,1973.00
2023-05-22T08:45:24.310Z,1961.00
2023-05-22T08:46:24.408Z,1941.00
2023-05-22T08:47:24.387Z,1943.00
2023-05-22T08:48:24.432Z,1956.00
2023-05-22T08:49:24.481Z,1960.00
2023-05-22T08:50:24.493Z,1976.00
2023-05-22T08:51:24.606Z,1985.00
2023-05-22T08:52:24.580Z,1950.00
2023-05-22T08:53:24.596Z,1939.00
2023-05-22T08:54:24.647Z,1934.00
2023-05-22T08:55:24.645Z,1948.00
2023-05-22T08:56:26.049Z,1964.00
2023-05-22T08:57:24.701Z,1968.00
2023-05-22T08:58:24.719Z,1963.00
2023-05-22T08:59:24.671Z,1946.00
2023-05-22T09:00:24.675Z,1938.00
2023-05-22T09:01:24.687Z,1948.00
2023-05-22T09:02:24.691Z,1972.00
2023-05-22T09:03:24.772Z,1963.00
2023-05-22T09:04:24.665Z,1998.00
2023-05-22T09:05:24.636Z,1982.00
2023-05-22T09:06:24.613Z,2003.00
2023-05-22T09:07:24.681Z,2002.00
2023-05-22T09:08:24.617Z,2004.00
2023-05-22T09:09:24.642Z,1998.00
2023-05-22T09:10:24.594Z,1980.00
2023-05-22T09:11:24.604Z,1996.00
2023-05-22T09:12:24.581Z,2003.00
2023-05-22T09:13:24.601Z,1999.00
2023-05-22T09:14:24.554Z,2022.00
2023-05-22T09:15:24.552Z,2034.00
2023-05-22T09:16:24.593Z,2034.00
2023-05-22T09:18:24.543Z,2006.00
2023-05-22T09:19:24.606Z,2034.00
2023-05-22T09:20:24.517Z,2032.00
2023-05-22T09:21:30.083Z,2026.00
2023-05-22T09:22:25.527Z,2027.00
2023-05-22T09:23:24.493Z,2031.00
2023-05-22T09:24:24.533Z,2028.00
2023-05-22T09:25:24.527Z,2003.00
2023-05-22T09:26:24.480Z,1998.00
2023-05-22T09:27:24.486Z,1988.00
2023-05-22T09:28:24.546Z,1995.00
2023-05-22T09:29:24.462Z,2008.00
2023-05-22T09:30:24.460Z,1994.00
2023-05-22T09:31:24.497Z,1988.00
2023-05-22T09:32:24.504Z,2007.00
2023-05-22T09:33:24.442Z,2033.00
2023-05-22T09:34:24.436Z,1997.00
2023-05-22T09:35:24.449Z,1992.00
2023-05-22T09:36:24.439Z,1973.00
2023-05-22T09:37:24.412Z,1987.00
2023-05-22T09:38:24.424Z,1994.00
2023-05-22T09:39:24.385Z,2007.00
2023-05-22T09:40:24.417Z,2022.00
2023-05-22T09:41:24.376Z,2018.00
2023-05-22T09:42:24.479Z,2037.00
2023-05-22T09:43:24.375Z,2040.00
2023-05-22T09:44:24.400Z,2026.00
2023-05-22T09:45:24.373Z,1996.00
2023-05-22T09:46:24.384Z,1975.00
2023-05-22T09:47:24.389Z,1972.00
2023-05-22T09:48:24.359Z,1988.00
2023-05-22T09:49:24.384Z,1987.00
2023-05-22T09:50:24.371Z,1981.00
2023-05-22T09:51:24.352Z,1960.00
2023-05-22T09:52:24.351Z,1946.00
2023-05-22T09:53:24.368Z,1919.00
2023-05-22T09:54:24.376Z,1909.00
2023-05-22T09:55:24.358Z,1868.00
2023-05-22T09:56:35.269Z,1848.00
2023-05-22T09:57:25.381Z,1848.00
2023-05-22T09:58:24.340Z,1849.00
2023-05-22T09:59:24.341Z,1849.00
2023-05-22T10:00:24.365Z,1845.00
2023-05-22T10:01:24.489Z,1828.00
2023-05-22T10:02:24.392Z,1812.00
2023-05-22T10:03:24.350Z,1815.00
2023-05-22T10:04:24.415Z,1805.00
2023-05-22T10:05:24.320Z,1781.00
2023-05-22T10:06:24.284Z,1771.00
2023-05-22T10:07:24.350Z,1742.00
2023-05-22T10:08:24.284Z,1707.00
2023-05-22T10:09:24.294Z,1702.00
2023-05-22T10:10:24.279Z,1674.00
2023-05-22T10:11:24.274Z,1664.00
2023-05-22T10:12:24.311Z,1652.00
2023-05-22T10:13:24.275Z,1642.00
2023-05-22T10:14:24.246Z,1618.00
2023-05-22T10:15:24.268Z,1608.00
2023-05-22T10:16:24.296Z,1607.00
2023-05-22T10:17:24.280Z,1606.00
2023-05-22T10:18:24.220Z,1593.00
2023-05-22T10:19:24.250Z,1565.00
2023-05-22T10:20:24.183Z,1565.00
2023-05-22T10:21:24.200Z,1524.00
2023-05-22T10:22:24.193Z,1503.00
2023-05-22T10:23:24.229Z,1495.00
2023-05-22T10:24:24.277Z,1490.00
2023-05-22T10:25:24.282Z,1462.00
2023-05-22T10:26:24.300Z,1444.00
2023-05-22T10:27:24.412Z,1450.00
2023-05-22T10:28:24.367Z,1424.00
2023-05-22T10:29:24.400Z,1410.00
2023-05-22T10:30:24.395Z,1398.00
2023-05-22T10:31:24.417Z,1390.00
2023-05-22T10:32:24.436Z,1361.00
2023-05-22T10:33:24.497Z,1353.00
2023-05-22T10:34:24.429Z,1336.00
2023-05-22T10:35:24.456Z,1336.00
2023-05-22T10:36:24.560Z,1331.00
2023-05-22T10:37:24.508Z,1302.00
2023-05-22T10:38:24.518Z,1351.00
2023-05-22T10:39:24.525Z,1391.00
2023-05-22T10:40:24.780Z,1413.00
2023-05-22T10:41:24.588Z,1433.00
2023-05-22T10:42:24.567Z,1451.00
2023-05-22T10:43:24.596Z,1485.00
2023-05-22T10:44:24.644Z,1505.00
2023-05-22T10:45:24.592Z,1523.00
2023-05-22T10:46:24.697Z,1541.00
2023-05-22T10:47:24.617Z,1537.00
2023-05-22T10:48:24.587Z,1545.00
2023-05-22T10:49:24.605Z,1543.00
2023-05-22T10:50:24.643Z,1529.00
2023-05-22T10:51:24.672Z,1537.00
2023-05-22T10:52:24.695Z,1547.00
2023-05-22T10:53:24.758Z,1538.00
2023-05-22T10:54:24.797Z,1551.00
2023-05-22T10:55:24.894Z,1571.00
2023-05-22T10:56:25.887Z,1554.00
2023-05-22T10:57:25.002Z,1587.00
2023-05-22T10:58:25.106Z,1604.00
2023-05-22T10:59:25.111Z,1621.00
2023-05-22T11:00:25.208Z,1625.00
2023-05-22T11:01:25.245Z,1620.00
2023-05-22T11:02:25.497Z,1628.00
2023-05-22T11:03:25.389Z,1634.00
2023-05-22T11:04:25.597Z,1626.00
2023-05-22T11:05:25.484Z,1655.00
2023-05-22T11:06:25.567Z,1643.00
2023-05-22T11:07:25.621Z,1639.00
2023-05-22T11:08:25.680Z,1625.00
2023-05-22T11:09:25.751Z,1628.00
2023-05-22T11:10:25.815Z,1634.00
2023-05-22T11:11:25.877Z,1651.00
2023-05-22T11:12:25.917Z,1657.00
2023-05-22T11:13:27.437Z,1645.00
2023-05-22T11:14:25.976Z,1629.00
2023-05-22T11:15:26.051Z,1565.00
2023-05-22T11:16:25.963Z,1535.00
2023-05-22T11:17:26.022Z,1527.00
2023-05-22T11:18:25.952Z,1574.00
2023-05-22T11:19:25.969Z,1532.00
2023-05-22T11:20:25.952Z,1455.00
2023-05-22T11:21:25.888Z,1470.00
2023-05-22T11:22:25.921Z,1480.00
2023-05-22T11:23:25.911Z,1490.00
2023-05-22T11:24:25.917Z,1483.00
2023-05-22T11:25:25.928Z,1508.00
2023-05-22T11:26:27.989Z,1523.00
2023-05-22T11:27:25.883Z,1523.00
2023-05-22T11:28:25.842Z,1499.00
2023-05-22T11:29:25.891Z,1461.00
2023-05-22T11:30:25.867Z,1469.00
2023-05-22T11:31:25.999Z,1395.00
2023-05-22T11:32:25.944Z,1224.00
2023-05-22T11:33:25.965Z,1099.00
2023-05-22T11:34:26.027Z,1028.00
2023-05-22T11:35:26.054Z,995.00
2023-05-22T11:36:26.098Z,1025.00
2023-05-22T11:37:26.155Z,1060.00
2023-05-22T11:38:26.208Z,1093.00
2023-05-22T11:39:26.251Z,1092.00
2023-05-22T11:40:26.326Z,1091.00
2023-05-22T11:41:26.393Z,1098.00
2023-05-22T11:42:26.388Z,1112.00
2023-05-22T11:43:26.444Z,1153.00
2023-05-22T11:44:26.466Z,1202.00
2023-05-22T11:45:26.594Z,1283.00
2023-05-22T11:46:26.601Z,1274.00
2023-05-22T11:47:26.782Z,1204.00
2023-05-22T11:48:26.726Z,1108.00
2023-05-22T11:49:26.762Z,1198.00
2023-05-22T11:50:41.091Z,1242.00
2023-05-22T11:51:27.813Z,1244.00
2023-05-22T11:52:26.818Z,1250.00
2023-05-22T11:53:26.814Z,1262.00
2023-05-22T11:54:26.871Z,1292.00
2023-05-22T11:55:26.812Z,1330.00
2023-05-22T11:56:28.514Z,1255.00
2023-05-22T11:57:26.796Z,1220.00
2023-05-22T11:58:26.792Z,1220.00
2023-05-22T11:59:26.765Z,1201.00
2023-05-22T12:00:26.832Z,1218.00
2023-05-22T12:01:26.773Z,1216.00
2023-05-22T12:02:26.859Z,1222.00
2023-05-22T12:03:27.072Z,1244.00
2023-05-22T12:04:26.889Z,1265.00
2023-05-22T12:05:26.994Z,1238.00
2023-05-22T12:06:27.088Z,1248.00
2023-05-22T12:07:27.056Z,1226.00
2023-05-22T12:08:27.126Z,1284.00
2023-05-22T12:09:27.158Z,1282.00
2023-05-22T12:10:27.198Z,1292.00
2023-05-22T12:11:27.249Z,1324.00
2023-05-22T12:12:27.329Z,1357.00
2023-05-22T12:13:27.373Z,1384.00
2023-05-22T12:14:27.412Z,1415.00
2023-05-22T12:15:27.454Z,1397.00